Home   Weather   USA   Sebring   Past weeks
Flag for USA

Past Weather in Sebring, Florida, USA — Yesterday and Last 2 Weeks

Currently: 93 °F. Scattered clouds. (Weather station: Bartow Municipal, USA). See more current weather

Past Weather in Sebring — Graph

°F

Sebring Temperature Yesterday

Maximum temperature yesterday: 93 °F (at 6:35 pm)
Minimum temperature yesterday: 75 °F (at 4:55 am)
Average temperature yesterday: 82 °F

High & Low Weather Summary for the Past Weeks

 TemperatureHumidityPressure
High97 °F (Jun 9, 3:50 pm)100% (Jun 8, 7:35 am)30.14 "Hg (Jun 8, 7:35 am)
Low72 °F (Jun 16, 6:35 am)39% (Jun 8, 6:35 pm)29.78 "Hg (Jun 10, 5:35 pm)
Average81 °F80%29.96 "Hg
* Reported Jun 7 2:35 pm — Jun 22 2:45 pm, Sebring. Weather by CustomWeather, © 2024

Note: Actual official high and low records may vary slightly from our data, if they occured in-between our weather recording intervals... More about our weather records

Sebring Weather History for the Previous 24 Hours

Scroll right to see more
 ConditionsComfort  
Time TempWeatherWind HumidityBarometerVisibility
2:45 pm
Sat, Jun 22
93 °FScattered clouds.13 mph49%30.04 "Hg10 mi
1:45 pm93 °FScattered clouds.12 mph56%30.06 "Hg10 mi
12:35 pm93 °FScattered clouds.5 mph53%30.08 "Hg10 mi
11:45 am90 °FScattered clouds.3 mph59%30.10 "Hg10 mi
10:30 am90 °FScattered clouds.No wind63%30.11 "Hg10 mi
9:30 am86 °FSunny.5 mph70%30.11 "Hg10 mi
8:55 am82 °FSunny.5 mph84%30.10 "Hg10 mi
8:35 am79 °FSunny.5 mph94%30.10 "Hg10 mi
8:15 am79 °FSunny.3 mph94%30.10 "Hg10 mi
7:55 am77 °FSunny.5 mph94%30.09 "Hg10 mi
7:30 am75 °FSunny.3 mph94%30.08 "Hg10 mi
6:55 am77 °FSunny.No wind94%30.06 "Hg10 mi
6:35 am75 °FSunny.No wind94%30.06 "Hg10 mi
6:15 am77 °FClear.No wind94%30.05 "Hg10 mi
5:55 am75 °FClear.No wind100%30.06 "Hg10 mi
5:35 am77 °FClear.3 mph94%30.06 "Hg10 mi
5:15 am77 °FClear.3 mph94%30.06 "Hg10 mi
4:35 am77 °FPassing clouds.3 mph94%30.06 "Hg10 mi
4:15 am77 °FPassing clouds.No wind94%30.06 "Hg10 mi
3:35 am79 °FPassing clouds.No wind89%30.06 "Hg10 mi
3:15 am79 °FPassing clouds.No wind89%30.07 "Hg10 mi
2:55 am79 °FClear.3 mph89%30.06 "Hg10 mi
2:35 am79 °FClear.6 mph89%30.07 "Hg10 mi
2:15 am79 °FClear.6 mph89%30.07 "Hg10 mi
1:55 am79 °FClear.7 mph89%30.08 "Hg10 mi
1:35 am81 °FPassing clouds.No wind84%30.08 "Hg10 mi
1:15 am81 °FPassing clouds.No wind84%30.08 "Hg10 mi
12:55 am81 °FPassing clouds.No wind89%30.09 "Hg10 mi
12:35 am81 °FPartly cloudy.3 mph89%30.09 "Hg10 mi
12:15 am81 °FPassing clouds.No wind89%30.09 "Hg10 mi
11:55 pm
Fri, Jun 21
81 °FClear.5 mph89%30.08 "Hg10 mi
11:35 pm81 °FClear.7 mph89%30.08 "Hg10 mi
11:15 pm81 °FClear.No wind89%30.07 "Hg10 mi
10:55 pm82 °FClear.No wind84%30.07 "Hg10 mi
10:35 pm84 °FClear.5 mph79%30.07 "Hg10 mi
9:55 pm84 °FClear.5 mph79%30.06 "Hg10 mi
9:35 pm84 °FPassing clouds.No wind79%30.06 "Hg10 mi
9:15 pm84 °FMostly cloudy.5 mph74%30.05 "Hg10 mi
8:55 pm84 °FPassing clouds.7 mph74%30.04 "Hg10 mi
8:20 pm88 °FScattered clouds.7 mph62%30.02 "Hg10 mi
7:55 pm90 °FScattered clouds.No wind52%30.02 "Hg10 mi
7:35 pm90 °FBroken clouds.5 mph52%30.01 "Hg10 mi
7:15 pm93 °FPartly sunny.7 mph47%30.01 "Hg10 mi
6:55 pm93 °FPartly sunny.8 mph47%30.01 "Hg10 mi
6:35 pm93 °FScattered clouds.6 mph47%30.01 "Hg10 mi
5:55 pm91 °FMostly cloudy.6 mph52%30.01 "Hg10 mi
5:10 pm91 °FPassing clouds.5 mph52%30.01 "Hg10 mi
Weather by CustomWeather, © 2024

See weather overview